Time;durP1;ratioP1;P1;durP2;ratioP2;P2;SDS_P1;SDS_P2;PMS_P1;PMS_P2;Temp;Humidity;BMP_temperature;BMP_pressure;BME280_temperature;BME280_humidity;BME280_pressure;Samples;Min_cycle;Max_cycle;Signal;HPM_P1;HPM_P2
2021/07/20 00:00:27;;;;;;;15.90;14.20;;;;;;;25.69;62.74;93418.88;5065090;28;20055;-72
2021/07/20 00:02:58;;;;;;;19.67;13.35;;;;;;;25.69;62.70;93414.22;5067419;28;20082;-72
2021/07/20 00:05:26;;;;;;;17.83;14.40;;;;;;;25.71;62.58;93411.88;5065139;28;20028;-72
2021/07/20 00:07:57;;;;;;;17.58;14.75;;;;;;;25.69;62.91;93418.88;5064209;28;20032;-71
2021/07/20 00:10:37;;;;;;;16.88;14.20;;;;;;;25.63;63.38;93423.13;5066679;28;20183;-72
2021/07/20 00:13:05;;;;;;;17.73;13.15;;;;;;;25.53;63.09;93411.16;5059815;28;20051;-72
2021/07/20 00:15:31;;;;;;;15.57;12.15;;;;;;;25.57;63.05;93413.88;5063603;28;20712;-72
2021/07/20 00:17:59;;;;;;;14.18;12.32;;;;;;;25.59;62.92;93419.69;5065960;28;20499;-72
2021/07/20 00:20:27;;;;;;;13.57;12.10;;;;;;;25.30;63.71;93414.31;5068204;28;20023;-73
2021/07/20 00:22:53;;;;;;;14.45;12.77;;;;;;;24.94;65.27;93420.94;5063693;28;20285;-72
2021/07/20 00:25:19;;;;;;;14.77;12.68;;;;;;;24.71;65.56;93413.22;5064358;28;20090;-72
2021/07/20 00:27:44;;;;;;;14.75;11.57;;;;;;;24.63;66.87;93413.59;5063493;28;20028;-72
2021/07/20 00:30:11;;;;;;;16.30;12.40;;;;;;;24.49;66.36;93414.34;5065487;28;20046;-71
2021/07/20 00:32:39;;;;;;;15.57;13.75;;;;;;;24.34;66.87;93412.78;5063259;28;20021;-73
2021/07/20 00:35:08;;;;;;;16.20;12.57;;;;;;;24.13;67.44;93408.09;5067110;28;20028;-70
2021/07/20 00:37:34;;;;;;;19.38;13.73;;;;;;;24.12;67.62;93409.25;5068145;28;20143;-71
2021/07/20 00:40:00;;;;;;;15.60;12.93;;;;;;;23.99;67.80;93391.88;5062050;28;20038;-71
2021/07/20 00:42:25;;;;;;;17.83;13.20;;;;;;;23.88;68.42;93396.47;5065516;28;20102;-72
2021/07/20 00:44:51;;;;;;;16.27;13.90;;;;;;;23.75;68.90;93404.91;5066863;28;20534;-72
2021/07/20 00:47:17;;;;;;;15.57;13.90;;;;;;;23.76;68.98;93389.47;5064219;28;20028;-72
2021/07/20 00:49:43;;;;;;;16.45;12.80;;;;;;;23.83;68.93;93391.44;5064696;28;20024;-72
2021/07/20 00:52:08;;;;;;;23.88;13.00;;;;;;;23.86;68.80;93398.75;5065352;28;20055;-71
2021/07/20 00:54:34;;;;;;;19.17;13.02;;;;;;;23.64;68.75;93352.84;5065117;28;20050;-72
2021/07/20 00:57:01;;;;;;;20.42;13.50;;;;;;;24.02;68.39;93396.50;5067548;28;20035;-72
2021/07/20 00:59:27;;;;;;;15.57;13.55;;;;;;;24.00;68.14;93371.81;5065558;28;20629;-73
2021/07/20 01:01:52;;;;;;;18.00;13.70;;;;;;;24.19;67.70;93395.03;5066573;28;20467;-72
2021/07/20 01:04:17;;;;;;;14.05;12.57;;;;;;;24.28;67.45;93381.94;5062169;28;20502;-71
2021/07/20 01:06:46;;;;;;;14.13;12.65;;;;;;;24.44;67.21;93390.41;5072075;28;20392;-72
2021/07/20 01:09:12;;;;;;;17.00;14.32;;;;;;;24.55;66.19;93389.28;5063888;28;20144;-71
2021/07/20 01:11:38;;;;;;;15.40;13.48;;;;;;;24.56;66.09;93371.91;5066492;28;20032;-72
2021/07/20 01:14:04;;;;;;;13.88;11.82;;;;;;;24.68;65.75;93383.50;5064324;28;20415;-72
2021/07/20 01:16:34;;;;;;;14.18;12.48;;;;;;;24.72;65.38;93381.56;5066449;28;20044;-72
2021/07/20 01:19:02;;;;;;;13.77;12.20;;;;;;;24.73;65.23;93385.81;5063614;28;20128;-72
2021/07/20 01:21:32;;;;;;;14.73;13.18;;;;;;;24.74;65.08;93388.09;5060227;28;20050;-72
2021/07/20 01:23:58;;;;;;;14.50;12.85;;;;;;;24.75;64.89;93383.47;5063893;28;20536;-72
2021/07/20 01:26:23;;;;;;;16.20;11.85;;;;;;;24.84;64.64;93383.84;5065233;28;20142;-71
2021/07/20 01:28:51;;;;;;;15.52;12.35;;;;;;;24.86;65.09;93379.63;5065208;28;20170;-71
2021/07/20 01:31:21;;;;;;;17.13;12.07;;;;;;;24.91;64.36;93386.59;5066545;28;20089;-72
2021/07/20 01:33:53;;;;;;;21.02;13.13;;;;;;;24.92;64.15;93371.91;5065078;28;20044;-71
2021/07/20 01:36:21;;;;;;;13.98;12.63;;;;;;;24.95;64.37;93392.75;5064429;28;20075;-74
2021/07/20 01:38:47;;;;;;;15.65;12.80;;;;;;;25.00;63.56;93390.44;5061571;28;20054;-74
2021/07/20 01:41:18;;;;;;;16.30;13.55;;;;;;;24.87;63.50;93375.00;5067169;28;20024;-72
2021/07/20 01:43:48;;;;;;;16.60;12.38;;;;;;;25.00;63.39;93389.66;5064512;28;20071;-71
2021/07/20 01:46:15;;;;;;;16.30;13.02;;;;;;;24.99;63.43;93399.69;5065033;28;20051;-71
2021/07/20 01:48:43;;;;;;;16.40;12.63;;;;;;;24.94;63.97;93402.78;5064871;28;20052;-71
2021/07/20 01:51:10;;;;;;;14.32;12.82;;;;;;;24.84;63.71;93389.25;5062849;28;20113;-71
2021/07/20 01:53:36;;;;;;;13.68;12.30;;;;;;;24.93;63.56;93390.44;5059932;28;20171;-71
2021/07/20 01:56:07;;;;;;;16.15;12.77;;;;;;;24.86;63.99;93395.06;5066936;28;20665;-71
2021/07/20 01:58:41;;;;;;;17.00;13.13;;;;;;;24.75;63.77;93388.88;5061973;28;20477;-70
2021/07/20 02:01:10;;;;;;;20.83;15.15;;;;;;;24.84;64.05;93400.06;5066676;28;20572;-70
2021/07/20 02:09:00;;;;;;;17.43;13.40;;;;;;;24.70;63.57;93392.75;5065559;28;19923;-71
2021/07/20 02:11:31;;;;;;;14.10;12.00;;;;;;;24.81;63.01;93401.63;5067338;28;20323;-72
2021/07/20 02:14:03;;;;;;;17.52;13.73;;;;;;;24.77;62.95;93394.69;5063316;28;20083;-71
2021/07/20 02:16:34;;;;;;;20.77;15.10;;;;;;;24.88;63.17;93403.56;5063217;28;20339;-72
2021/07/20 02:19:16;;;;;;;17.52;13.35;;;;;;;24.94;62.93;93402.00;5065750;28;20040;-71
2021/07/20 02:21:46;;;;;;;15.55;11.63;;;;;;;24.94;62.54;93400.09;5062418;28;20371;-71
2021/07/20 02:24:14;;;;;;;15.05;12.20;;;;;;;24.96;62.16;93395.06;5061821;28;20695;-71
2021/07/20 02:26:40;;;;;;;18.67;13.25;;;;;;;24.92;62.70;93388.13;5064089;28;20086;-71
2021/07/20 02:29:07;;;;;;;16.73;14.02;;;;;;;24.82;62.20;93388.88;5066102;28;20036;-72
2021/07/20 02:31:35;;;;;;;14.98;12.88;;;;;;;24.88;62.83;93407.03;5066442;28;20128;-70
2021/07/20 02:34:01;;;;;;;18.23;13.18;;;;;;;24.55;63.36;93381.16;5065577;28;20089;-72
2021/07/20 02:36:28;;;;;;;16.98;13.27;;;;;;;24.63;63.83;93398.13;5064281;28;20048;-72
2021/07/20 02:38:55;;;;;;;15.65;13.63;;;;;;;24.58;63.92;93391.19;5063382;28;20028;-71
2021/07/20 02:41:22;;;;;;;21.42;13.73;;;;;;;24.46;64.16;93394.28;5065239;28;20020;-71
2021/07/20 02:43:48;;;;;;;19.38;14.13;;;;;;;24.41;64.51;93402.78;5061055;28;20036;-71
2021/07/20 02:46:16;;;;;;;18.45;15.23;;;;;;;24.41;64.64;93408.16;5063401;28;20109;-72
2021/07/20 02:48:43;;;;;;;19.88;14.10;;;;;;;24.32;64.58;93399.69;5063908;28;20583;-72
2021/07/20 02:51:10;;;;;;;17.75;15.15;;;;;;;24.44;64.88;93407.41;5063194;28;20188;-71
2021/07/20 02:53:40;;;;;;;20.92;15.63;;;;;;;24.54;64.45;93405.84;5062566;28;20025;-71
2021/07/20 02:56:09;;;;;;;21.27;15.98;;;;;;;24.54;64.42;93411.25;5062117;28;20024;-71
2021/07/20 02:58:36;;;;;;;18.00;14.35;;;;;;;24.47;64.44;93414.75;5062355;28;20032;-72
2021/07/20 03:01:03;;;;;;;18.58;14.27;;;;;;;24.53;63.90;93404.34;5061252;28;20048;-72
2021/07/20 03:03:29;;;;;;;17.98;15.00;;;;;;;24.41;63.87;93391.97;5065136;28;20127;-72
2021/07/20 03:05:56;;;;;;;18.60;13.98;;;;;;;24.46;64.15;93407.78;5064112;28;20036;-72
2021/07/20 03:08:28;;;;;;;16.88;13.93;;;;;;;24.44;63.90;93406.63;5064455;28;20052;-72
2021/07/20 03:10:56;;;;;;;18.23;14.70;;;;;;;24.50;64.61;93416.66;5060811;28;20631;-72
2021/07/20 03:13:24;;;;;;;19.25;15.20;;;;;;;24.49;63.73;93407.00;5062862;28;20542;-72
2021/07/20 03:15:50;;;;;;;21.33;15.00;;;;;;;24.65;63.08;93422.06;5060845;28;20060;-72
2021/07/20 03:18:16;;;;;;;19.02;14.48;;;;;;;24.55;62.29;93402.00;5068799;28;20539;-73
2021/07/20 03:20:43;;;;;;;23.10;17.55;;;;;;;24.58;61.37;93423.59;5062807;28;20248;-71
2021/07/20 03:23:10;;;;;;;20.92;16.70;;;;;;;24.47;62.03;93416.66;5067370;28;20147;-72
2021/07/20 03:25:36;;;;;;;23.38;17.45;;;;;;;24.39;62.08;93410.47;5062426;28;20040;-71
2021/07/20 03:28:04;;;;;;;20.25;17.42;;;;;;;24.40;62.46;93424.75;5067926;28;20036;-72
2021/07/20 03:30:33;;;;;;;23.27;18.33;;;;;;;24.16;62.04;93399.22;5065540;28;20502;-71
2021/07/20 03:33:01;;;;;;;24.02;17.85;;;;;;;24.24;62.93;93418.97;5065857;28;20469;-72
2021/07/20 03:35:27;;;;;;;19.20;17.10;;;;;;;24.20;63.34;93435.13;5067015;28;20023;-71
2021/07/20 03:37:53;;;;;;;24.98;19.98;;;;;;;24.21;63.52;93436.69;5067540;28;20076;-71
2021/07/20 03:40:19;;;;;;;24.83;19.05;;;;;;;24.05;64.14;93420.03;5066299;28;20141;-72
2021/07/20 03:42:45;;;;;;;23.50;18.58;;;;;;;23.96;64.14;93422.31;5064367;28;20617;-71
2021/07/20 03:45:11;;;;;;;27.95;19.20;;;;;;;24.03;64.53;93444.72;5060590;28;20086;-71
2021/07/20 03:47:37;;;;;;;21.83;17.77;;;;;;;23.92;64.21;93446.59;5067587;28;20446;-72
2021/07/20 03:50:05;;;;;;;28.27;19.98;;;;;;;23.74;65.34;93449.25;5066880;28;20039;-71
2021/07/20 03:52:32;;;;;;;28.55;18.83;;;;;;;23.54;66.18;93458.78;5062279;28;20135;-71
2021/07/20 03:54:58;;;;;;;26.17;17.85;;;;;;;23.43;66.61;93443.66;5067325;28;20510;-72
2021/07/20 03:57:25;;;;;;;24.45;18.67;;;;;;;23.61;66.34;93464.19;5068625;28;20064;-71
2021/07/20 03:59:55;;;;;;;24.05;18.55;;;;;;;23.63;66.27;93474.63;5072175;28;20032;-70
2021/07/20 04:02:22;;;;;;;23.98;19.77;;;;;;;23.71;66.62;93481.59;5076528;28;20032;-71
2021/07/20 04:04:51;;;;;;;30.15;19.92;;;;;;;23.62;66.68;93481.94;5066997;28;20050;-71
2021/07/20 04:07:18;;;;;;;25.95;19.10;;;;;;;23.50;66.04;93460.69;5069164;28;20444;-72
2021/07/20 04:09:45;;;;;;;25.10;20.30;;;;;;;23.59;66.19;93485.41;5063158;28;20074;-72
2021/07/20 04:12:15;;;;;;;22.25;18.85;;;;;;;23.61;66.31;93485.78;5065089;28;20052;-72
2021/07/20 04:14:45;;;;;;;24.15;18.83;;;;;;;23.57;66.39;93493.06;5065561;28;20506;-71
2021/07/20 04:17:12;;;;;;;27.80;20.63;;;;;;;23.47;66.92;93488.41;5067220;28;20072;-72
2021/07/20 04:19:39;;;;;;;30.70;20.83;;;;;;;23.36;66.95;93468.63;5066651;28;20037;-73
2021/07/20 04:22:06;;;;;;;26.38;21.02;;;;;;;23.25;67.28;93478.59;5065038;28;20028;-72
2021/07/20 04:24:32;;;;;;;25.75;20.27;;;;;;;23.14;67.61;93485.84;5069920;28;20052;-72
2021/07/20 04:27:01;;;;;;;33.17;22.63;;;;;;;23.02;67.73;93486.16;5065825;28;20614;-72
2021/07/20 04:29:27;;;;;;;26.27;21.00;;;;;;;22.97;67.95;93483.81;5066595;28;20020;-70
2021/07/20 04:31:55;;;;;;;28.23;22.45;;;;;;;23.06;67.62;93481.56;5066227;28;20039;-72
2021/07/20 04:34:20;;;;;;;24.60;20.10;;;;;;;22.92;67.00;93476.06;5066459;28;20032;-73
2021/07/20 04:36:47;;;;;;;27.35;21.08;;;;;;;22.94;66.40;93471.84;5066227;28;20055;-72
2021/07/20 04:39:12;;;;;;;29.63;21.55;;;;;;;23.06;65.76;93484.25;5067257;28;20123;-72
2021/07/20 04:41:39;;;;;;;26.85;21.02;;;;;;;23.09;65.48;93483.50;5065453;28;20397;-72
2021/07/20 04:44:06;;;;;;;30.08;21.75;;;;;;;23.13;65.53;93486.97;5065140;28;20046;-71
2021/07/20 04:46:32;;;;;;;27.02;21.73;;;;;;;22.85;65.23;93434.44;5064588;28;20036;-71
2021/07/20 04:48:58;;;;;;;31.75;23.67;;;;;;;23.28;65.07;93475.16;5080795;28;20036;-72
2021/07/20 04:51:24;;;;;;;31.83;23.58;;;;;;;23.32;65.07;93476.72;5067175;28;20908;-71
2021/07/20 04:53:50;;;;;;;31.30;23.65;;;;;;;23.47;64.98;93479.53;5063840;28;20036;-71
2021/07/20 04:56:15;;;;;;;37.15;24.02;;;;;;;23.54;64.29;93461.47;5067252;28;20542;-72
2021/07/20 04:58:41;;;;;;;34.90;25.23;;;;;;;23.82;63.54;93484.34;5064142;28;20233;-72
2021/07/20 05:01:08;;;;;;;29.17;21.17;;;;;;;23.84;62.93;93476.66;5065496;28;20049;-73
2021/07/20 05:03:35;;;;;;;31.02;20.60;;;;;;;23.79;62.59;93468.91;5067450;28;20032;-72
2021/07/20 05:06:01;;;;;;;26.92;20.92;;;;;;;23.77;62.65;93460.41;5066424;28;20501;-72
2021/07/20 05:08:28;;;;;;;29.10;21.35;;;;;;;23.76;62.47;93465.03;5067020;28;20021;-72
2021/07/20 05:10:57;;;;;;;27.00;20.38;;;;;;;23.84;63.07;93472.03;5064828;28;20128;-72
2021/07/20 05:13:24;;;;;;;27.80;20.20;;;;;;;23.88;62.02;93467.41;5062196;28;20509;-72
2021/07/20 05:15:55;;;;;;;26.73;19.63;;;;;;;;;;5065705;28;20032;-71
2021/07/20 05:18:22;;;;;;;26.00;20.55;;;;;;;23.92;62.58;93470.88;5064480;28;20040;-72
2021/07/20 05:20:49;;;;;;;24.98;19.15;;;;;;;24.09;62.52;93482.91;5065415;28;20326;-71
2021/07/20 05:23:18;;;;;;;22.77;19.08;;;;;;;24.06;61.63;93484.44;5066817;28;20020;-72
2021/07/20 05:25:47;;;;;;;24.70;18.70;;;;;;;24.06;61.44;93489.06;5063159;28;20039;-72
2021/07/20 05:28:13;;;;;;;24.15;19.75;;;;;;;24.04;62.10;93488.69;5066050;28;20031;-72
2021/07/20 05:30:41;;;;;;;22.38;18.33;;;;;;;24.04;61.02;93484.03;5058508;28;20082;-72
2021/07/20 05:33:07;;;;;;;25.73;20.17;;;;;;;24.04;62.05;93492.13;5058870;28;20051;-73
2021/07/20 05:35:34;;;;;;;23.90;19.20;;;;;;;24.06;62.00;93470.94;5061500;28;20052;-71
2021/07/20 05:38:00;;;;;;;25.08;18.35;;;;;;;24.36;61.48;93491.50;5061173;28;20102;-73
2021/07/20 05:40:25;;;;;;;25.27;20.42;;;;;;;24.48;61.53;93493.84;5062350;28;20490;-73
2021/07/20 05:42:52;;;;;;;23.83;20.38;;;;;;;24.30;60.16;93482.22;5062877;28;20284;-72
2021/07/20 05:45:18;;;;;;;26.05;21.42;;;;;;;24.65;60.28;93503.13;5067421;28;20123;-72
2021/07/20 05:47:47;;;;;;;25.00;20.52;;;;;;;24.62;59.68;93501.19;5062343;28;20470;-72
2021/07/20 05:50:13;;;;;;;26.67;20.63;;;;;;;24.59;59.79;93498.09;5064425;28;20035;-72
2021/07/20 05:52:44;;;;;;;24.77;19.70;;;;;;;24.59;60.19;93489.22;5064686;28;20032;-72
2021/07/20 05:55:11;;;;;;;25.02;19.65;;;;;;;24.71;60.18;93509.72;5064451;28;20036;-72
2021/07/20 05:57:40;;;;;;;31.83;22.00;;;;;;;24.68;59.95;93513.19;5062505;28;20044;-72
2021/07/20 06:00:10;;;;;;;27.52;22.40;;;;;;;24.71;59.55;93513.19;5062923;28;20119;-72
2021/07/20 06:02:40;;;;;;;24.73;21.23;;;;;;;24.55;59.95;93510.84;5065663;28;20760;-71
2021/07/20 06:05:13;;;;;;;30.27;21.48;;;;;;;24.50;60.44;93507.72;5064941;28;20521;-72
2021/07/20 06:07:39;;;;;;;27.25;22.20;;;;;;;24.54;60.41;93514.69;5064467;28;20032;-72
2021/07/20 06:10:06;;;;;;;31.38;21.92;;;;;;;24.65;60.63;93513.94;5062063;28;20044;-72
2021/07/20 06:12:32;;;;;;;32.05;22.30;;;;;;;24.75;60.22;93507.78;5062233;28;20143;-71
2021/07/20 06:15:00;;;;;;;33.28;22.88;;;;;;;24.74;60.78;93514.31;5062165;28;20550;-71
2021/07/20 06:17:26;;;;;;;32.45;23.13;;;;;;;24.91;61.24;93505.50;5065533;28;20048;-72
2021/07/20 06:19:53;;;;;;;31.52;22.90;;;;;;;25.07;59.88;93510.53;5066459;28;20047;-72
2021/07/20 06:22:23;;;;;;;28.13;22.33;;;;;;;25.16;59.11;93513.63;5065506;28;20584;-72
2021/07/20 06:24:51;;;;;;;28.95;23.42;;;;;;;25.25;59.36;93512.06;5065320;28;20032;-72
2021/07/20 06:27:18;;;;;;;20.65;17.63;;;;;;;25.23;59.13;93517.09;5064568;28;20502;-72
2021/07/20 06:29:45;;;;;;;21.38;16.30;;;;;;;25.06;59.23;93500.88;5066861;28;21287;-71
2021/07/20 06:32:13;;;;;;;21.50;16.90;;;;;;;25.29;60.60;93525.59;5064287;28;20050;-70
2021/07/20 06:34:40;;;;;;;20.50;16.70;;;;;;;25.09;59.24;93495.47;5065218;28;20394;-72
2021/07/20 06:37:06;;;;;;;23.52;17.45;;;;;;;25.22;59.48;93531.00;5063576;28;20093;-71
2021/07/20 06:39:32;;;;;;;22.85;18.75;;;;;;;25.07;59.38;93532.91;5063035;28;20037;-72
2021/07/20 06:42:01;;;;;;;23.83;17.50;;;;;;;25.03;59.92;93534.84;5063705;28;20024;-72
2021/07/20 06:44:28;;;;;;;24.10;17.55;;;;;;;25.01;60.26;93531.78;5070967;28;20091;-72
2021/07/20 06:46:55;;;;;;;27.98;18.27;;;;;;;25.07;60.50;93532.91;5063727;28;20048;-72
2021/07/20 06:49:21;;;;;;;18.90;16.35;;;;;;;25.09;59.85;93511.69;5060888;28;20716;-71
2021/07/20 06:51:47;;;;;;;20.05;15.02;;;;;;;25.20;59.92;93527.91;5066856;28;20047;-70
2021/07/20 06:54:13;;;;;;;21.90;17.58;;;;;;;25.09;60.62;93527.91;5066825;28;20048;-71
2021/07/20 06:56:42;;;;;;;18.10;14.85;;;;;;;25.12;60.32;93519.03;5067296;28;20509;-71
2021/07/20 06:59:09;;;;;;;18.00;14.38;;;;;;;25.22;60.08;93541.81;5067625;28;20078;-72
2021/07/20 07:01:38;;;;;;;19.60;15.05;;;;;;;25.23;60.53;93535.25;5068471;28;20380;-72
2021/07/20 07:04:35;;;;;;;18.70;14.43;;;;;;;25.39;60.07;93541.03;5065596;28;20043;-72
2021/07/20 07:07:02;;;;;;;16.35;13.13;;;;;;;25.32;59.00;93543.75;5067748;28;20055;-72
2021/07/20 07:09:30;;;;;;;17.63;12.40;;;;;;;25.04;58.66;93525.59;5067513;28;20127;-72
2021/07/20 07:11:57;;;;;;;15.90;12.07;;;;;;;24.97;59.11;93522.91;5062337;28;20035;-72
2021/07/20 07:14:24;;;;;;;20.13;13.88;;;;;;;25.15;60.81;93542.59;5067638;28;20064;-71
2021/07/20 07:16:53;;;;;;;22.88;15.10;;;;;;;25.13;60.46;93530.59;5066529;28;20639;-72
2021/07/20 07:19:20;;;;;;;20.65;13.57;;;;;;;25.29;61.21;93539.13;5068233;28;20040;-71
2021/07/20 07:21:48;;;;;;;17.65;14.77;;;;;;;25.43;60.67;93541.81;5065075;28;20186;-72
2021/07/20 07:24:19;;;;;;;19.55;15.40;;;;;;;25.56;60.39;93534.13;5065912;28;20124;-72
2021/07/20 07:26:46;;;;;;;20.38;15.13;;;;;;;25.60;59.59;93543.00;5065950;28;20089;-70
2021/07/20 07:29:13;;;;;;;19.30;14.95;;;;;;;25.54;59.96;93547.22;5065574;28;20094;-71
2021/07/20 07:31:44;;;;;;;19.52;15.05;;;;;;;25.60;60.20;93556.53;5063034;28;20041;-73
2021/07/20 07:34:11;;;;;;;16.20;13.60;;;;;;;25.65;58.62;93548.00;5065077;28;20317;-72
2021/07/20 07:36:38;;;;;;;16.83;13.15;;;;;;;25.76;58.63;93548.75;5065094;28;20498;-72
2021/07/20 07:39:05;;;;;;;19.85;14.18;;;;;;;25.81;58.83;93542.94;5066400;28;20032;-72
2021/07/20 07:41:37;;;;;;;18.38;13.52;;;;;;;25.92;58.81;93559.16;5069457;28;20020;-71
2021/07/20 07:44:03;;;;;;;16.08;13.15;;;;;;;25.89;58.78;93541.78;5067966;28;20432;-72
2021/07/20 07:46:36;;;;;;;17.15;13.90;;;;;;;26.09;58.83;93559.13;5065941;28;20032;-72
2021/07/20 07:49:03;;;;;;;21.23;14.02;;;;;;;26.11;57.94;93556.00;5066601;28;20040;-71
2021/07/20 07:51:28;;;;;;;20.10;14.93;;;;;;;26.00;58.39;93553.31;5066927;28;20112;-72
2021/07/20 07:53:58;;;;;;;17.55;14.35;;;;;;;26.06;58.39;93551.78;5064787;28;20474;-72
2021/07/20 07:56:30;;;;;;;19.63;13.52;;;;;;;26.13;58.40;93551.75;5064911;28;20420;-72
2021/07/20 07:58:57;;;;;;;17.92;13.50;;;;;;;26.34;58.37;93550.16;5065110;28;20032;-72
2021/07/20 08:01:23;;;;;;;16.80;13.40;;;;;;;26.35;56.98;93546.28;5062795;28;20073;-71
2021/07/20 08:03:50;;;;;;;19.40;14.38;;;;;;;26.43;56.70;93554.00;5063459;28;20036;-72
2021/07/20 08:06:21;;;;;;;17.85;14.20;;;;;;;26.48;56.76;93548.16;5059897;28;20037;-72
2021/07/20 08:08:51;;;;;;;20.33;12.68;;;;;;;26.48;54.98;93556.28;5067424;28;20048;-70
2021/07/20 08:11:18;;;;;;;16.17;12.73;;;;;;;26.38;54.88;93540.84;5064196;28;20765;-71
2021/07/20 08:13:43;;;;;;;17.75;13.85;;;;;;;26.56;54.70;93552.38;5064492;28;20226;-72
2021/07/20 08:16:11;;;;;;;15.90;13.10;;;;;;;26.35;54.88;93546.28;5065585;28;20073;-72
2021/07/20 08:18:37;;;;;;;15.27;12.80;;;;;;;26.52;55.66;93546.19;5061566;28;20056;-71
2021/07/20 08:21:05;;;;;;;16.80;13.43;;;;;;;26.45;55.60;93548.94;5062459;28;20035;-71
2021/07/20 08:23:31;;;;;;;14.43;12.45;;;;;;;26.49;55.63;93527.22;5064994;28;20033;-71
2021/07/20 08:26:05;;;;;;;15.73;12.60;;;;;;;26.65;55.85;93552.72;5065720;28;20033;-72
2021/07/20 08:28:37;;;;;;;14.52;12.80;;;;;;;26.63;56.25;93538.03;5062915;28;20032;-72
2021/07/20 08:31:05;;;;;;;16.15;12.63;;;;;;;26.71;54.96;93550.34;5062946;28;20640;-71
2021/07/20 08:33:33;;;;;;;14.77;12.02;;;;;;;26.74;55.09;93546.84;5065314;28;20041;-72
2021/07/20 08:36:03;;;;;;;16.48;12.95;;;;;;;26.67;55.74;93541.47;5063471;28;20372;-73
2021/07/20 08:38:30;;;;;;;20.23;12.45;;;;;;;26.55;55.69;93545.41;5064563;28;20032;-71
2021/07/20 08:40:59;;;;;;;21.17;14.40;;;;;;;26.62;56.62;93539.19;5063761;28;20089;-72
2021/07/20 08:43:43;;;;;;;16.58;12.95;;;;;;;26.70;55.03;93546.09;5063689;28;20515;-72
2021/07/20 08:46:37;;;;;;;20.90;14.45;;;;;;;26.77;54.17;93545.28;5065641;28;20045;-71
2021/07/20 08:49:20;;;;;;;18.50;12.48;;;;;;;26.75;54.33;93548.41;5064103;28;20037;-72
2021/07/20 08:52:03;;;;;;;18.63;12.63;;;;;;;26.67;52.91;93544.97;5063794;28;21682;-72
2021/07/20 08:54:37;;;;;;;20.55;12.00;;;;;;;26.67;53.36;93534.13;5064005;28;20119;-72
2021/07/20 08:57:06;;;;;;;16.10;12.63;;;;;;;26.79;53.81;93554.56;5062930;28;20024;-71
2021/07/20 08:59:46;;;;;;;16.77;13.82;;;;;;;26.95;54.49;93551.41;5062988;28;20123;-72
2021/07/20 09:02:26;;;;;;;18.90;12.55;;;;;;;26.98;53.33;93553.31;5063687;28;20044;-71
2021/07/20 09:05:01;;;;;;;15.20;12.25;;;;;;;27.00;53.74;93542.84;5064113;28;20044;-72
2021/07/20 09:07:34;;;;;;;17.30;12.25;;;;;;;27.19;54.13;93550.47;5063295;28;20040;-72
2021/07/20 09:10:04;;;;;;;14.95;11.68;;;;;;;27.21;53.28;93552.78;5062198;28;20032;-72
2021/07/20 09:12:36;;;;;;;18.70;12.52;;;;;;;27.32;54.08;93561.63;5063641;28;20566;-71
2021/07/20 09:15:10;;;;;;;17.30;12.93;;;;;;;27.22;53.44;93543.47;5074303;28;20131;-72
2021/07/20 09:17:48;;;;;;;17.87;11.90;;;;;;;27.35;52.68;93548.00;5062668;28;20371;-72
2021/07/20 09:20:19;;;;;;;16.95;13.27;;;;;;;27.34;52.96;93545.69;5065847;28;20136;-72
2021/07/20 09:22:56;;;;;;;13.90;12.40;;;;;;;27.33;53.59;93555.78;5063716;28;20109;-71
2021/07/20 09:25:31;;;;;;;12.20;10.13;;;;;;;27.22;50.72;93557.78;5064725;28;20037;-70
2021/07/20 09:28:14;;;;;;;15.48;12.20;;;;;;;27.11;51.19;93557.88;5062921;28;20036;-72
2021/07/20 09:30:51;;;;;;;13.20;10.88;;;;;;;27.06;51.98;93558.31;5065170;28;20578;-72
2021/07/20 09:33:50;;;;;;;13.55;11.55;;;;;;;27.10;51.59;93550.91;5061143;28;20535;-72
2021/07/20 09:36:51;;;;;;;15.82;10.07;;;;;;;26.96;52.63;93547.53;5062747;28;21010;-71
2021/07/20 09:39:47;;;;;;;14.82;11.55;;;;;;;26.99;52.88;93552.91;5049468;28;20068;-71
2021/07/20 09:42:40;;;;;;;12.38;10.45;;;;;;;26.90;53.35;93539.03;5066945;28;20039;-71
2021/07/20 09:45:15;;;;;;;13.07;10.85;;;;;;;26.88;53.55;93535.94;5041225;28;20617;-71
2021/07/20 09:47:43;;;;;;;;;;;;;;;26.92;53.98;93539.44;5063892;28;20070;-72
2021/07/20 09:50:17;;;;;;;13.85;10.90;;;;;;;26.87;52.78;93534.41;5065755;28;19927;-72
2021/07/20 09:53:04;;;;;;;11.93;10.73;;;;;;;27.05;54.07;93535.06;5065566;28;20044;-73
2021/07/20 09:55:57;;;;;;;11.65;10.30;;;;;;;27.08;52.89;93534.25;5063109;28;20051;-72
2021/07/20 09:58:35;;;;;;;13.20;10.82;;;;;;;27.20;52.64;93524.09;5067076;28;20033;-72
2021/07/20 10:01:15;;;;;;;14.23;11.45;;;;;;;27.25;53.54;93531.81;5064952;28;20543;-72
2021/07/20 10:03:46;;;;;;;14.10;11.15;;;;;;;27.33;51.90;93525.16;5064749;28;20047;-72
2021/07/20 10:06:30;;;;;;;14.13;11.65;;;;;;;27.24;52.58;93524.84;5063243;28;20037;-72
2021/07/20 10:09:20;;;;;;;15.20;11.30;;;;;;;27.23;50.62;93513.22;5064181;28;20077;-72
2021/07/20 10:12:00;;;;;;;11.80;10.60;;;;;;;27.21;51.02;93529.13;5065239;28;20034;-70
2021/07/20 10:14:31;;;;;;;12.15;9.82;;;;;;;27.04;51.21;93533.50;5064097;28;20044;-72
2021/07/20 10:16:57;;;;;;;12.75;10.15;;;;;;;27.12;52.95;93535.00;5065118;28;20055;-71
2021/07/20 10:19:45;;;;;;;10.97;9.30;;;;;;;27.18;50.74;93532.63;5063710;28;20449;-71
2021/07/20 10:22:15;;;;;;;12.70;10.27;;;;;;;27.25;52.31;93531.81;5045058;28;20810;-71
2021/07/20 10:24:49;;;;;;;14.27;10.68;;;;;;;27.28;51.94;93539.91;5064010;28;20046;-71
2021/07/20 10:27:28;;;;;;;13.68;10.27;;;;;;;27.30;51.87;93531.38;5064346;28;20846;-72
2021/07/20 10:30:01;;;;;;;13.35;10.95;;;;;;;27.41;52.78;93532.06;5063516;28;20090;-72
2021/07/20 10:32:32;;;;;;;14.80;9.73;;;;;;;27.43;50.90;93527.78;5066118;28;20021;-71
2021/07/20 10:35:02;;;;;;;13.73;10.05;;;;;;;27.47;51.39;93525.78;5064250;28;20036;-72
2021/07/20 10:37:29;;;;;;;10.70;9.60;;;;;;;27.64;51.13;93526.84;5063408;28;20037;-71
2021/07/20 10:39:59;;;;;;;10.73;9.50;;;;;;;27.68;50.69;93516.72;5063564;28;20044;-72
2021/07/20 10:42:35;;;;;;;13.38;10.38;;;;;;;27.78;50.75;93513.13;5063655;28;20547;-71
2021/07/20 10:45:09;;;;;;;12.55;10.05;;;;;;;27.74;50.22;93511.63;5067179;28;20066;-71
2021/07/20 10:47:47;;;;;;;10.80;9.55;;;;;;;27.55;50.16;93513.75;5065953;28;20130;-72
2021/07/20 10:50:21;;;;;;;10.43;9.27;;;;;;;27.63;50.09;93517.16;5065279;28;20068;-72
2021/07/20 10:52:58;;;;;;;13.57;10.18;;;;;;;27.71;49.49;93509.72;5063116;28;20063;-71
2021/07/20 10:55:45;;;;;;;13.95;10.02;;;;;;;27.89;49.12;93505.66;5065073;28;20425;-72
2021/07/20 10:58:23;;;;;;;11.52;10.20;;;;;;;27.94;48.80;93512.56;5060933;28;20045;-71
2021/07/20 11:00:56;;;;;;;16.60;11.52;;;;;;;27.76;48.27;93495.72;5063931;28;20036;-71
2021/07/20 11:03:31;;;;;;;14.37;11.57;;;;;;;27.92;48.62;93514.91;5061836;28;20041;-72
2021/07/20 11:05:58;;;;;;;15.93;11.23;;;;;;;27.92;47.60;93491.25;5061102;28;20401;-72
2021/07/20 11:08:25;;;;;;;14.40;11.48;;;;;;;27.87;48.26;93491.69;5064181;28;20082;-72
2021/07/20 11:10:56;;;;;;;15.38;13.18;;;;;;;27.87;47.87;93490.91;5063783;28;20037;-72
2021/07/20 11:13:28;;;;;;;15.43;11.95;;;;;;;27.96;48.31;93505.56;5062135;28;20510;-72
2021/07/20 11:15:57;;;;;;;14.75;10.98;;;;;;;27.90;47.30;93490.13;5063109;28;20048;-72
2021/07/20 11:18:31;;;;;;;16.17;11.23;;;;;;;28.00;47.86;93498.13;5058055;28;20045;-72
2021/07/20 11:21:01;;;;;;;13.52;11.80;;;;;;;27.99;48.11;93493.91;5056847;28;20051;-72
2021/07/20 11:23:33;;;;;;;15.85;11.75;;;;;;;28.00;47.81;93494.66;5060538;28;20131;-72
2021/07/20 11:26:00;;;;;;;14.52;12.25;;;;;;;27.99;47.48;93496.63;5055713;28;20147;-73
2021/07/20 11:28:27;;;;;;;13.88;11.00;;;;;;;28.00;47.58;93484.53;5048274;28;20125;-71
2021/07/20 11:30:56;;;;;;;15.00;11.65;;;;;;;28.04;47.78;93500.06;5056160;28;20484;-71
2021/07/20 11:33:32;;;;;;;16.67;11.60;;;;;;;28.03;46.72;93488.41;5059763;28;20061;-72
2021/07/20 11:36:00;;;;;;;14.73;11.65;;;;;;;28.12;46.63;93501.53;5060552;28;20544;-71